sensor_id;sensor_type;location;lat;lon;timestamp;P1;durP1;ratioP1;P2;durP2;ratioP2
67278;SDS011;54193;53.746;10.058;2023-03-19T00:01:41;47.10;;;23.73;;
67278;SDS011;54193;53.746;10.058;2023-03-19T00:04:27;47.80;;;23.63;;
67278;SDS011;54193;53.746;10.058;2023-03-19T00:07:13;47.97;;;23.43;;
67278;SDS011;54193;53.746;10.058;2023-03-19T00:10:00;46.90;;;22.45;;
67278;SDS011;54193;53.746;10.058;2023-03-19T00:12:45;43.33;;;21.40;;
67278;SDS011;54193;53.746;10.058;2023-03-19T00:15:31;44.53;;;21.70;;
67278;SDS011;54193;53.746;10.058;2023-03-19T00:18:17;48.35;;;24.65;;
67278;SDS011;54193;53.746;10.058;2023-03-19T00:21:03;46.95;;;23.70;;
67278;SDS011;54193;53.746;10.058;2023-03-19T00:23:48;52.63;;;24.17;;
67278;SDS011;54193;53.746;10.058;2023-03-19T00:26:34;49.47;;;23.77;;
67278;SDS011;54193;53.746;10.058;2023-03-19T00:29:20;52.92;;;23.90;;
67278;SDS011;54193;53.746;10.058;2023-03-19T00:32:07;45.75;;;22.25;;
67278;SDS011;54193;53.746;10.058;2023-03-19T00:34:53;46.17;;;22.37;;
67278;SDS011;54193;53.746;10.058;2023-03-19T00:37:39;44.38;;;21.75;;
67278;SDS011;54193;53.746;10.058;2023-03-19T00:40:26;46.60;;;21.52;;
67278;SDS011;54193;53.746;10.058;2023-03-19T00:43:11;43.80;;;21.07;;
67278;SDS011;54193;53.746;10.058;2023-03-19T00:45:57;40.47;;;20.75;;
67278;SDS011;54193;53.746;10.058;2023-03-19T00:48:43;41.53;;;21.00;;
67278;SDS011;54193;53.746;10.058;2023-03-19T00:51:28;46.22;;;21.90;;
67278;SDS011;54193;53.746;10.058;2023-03-19T00:54:14;40.22;;;19.92;;
67278;SDS011;54193;53.746;10.058;2023-03-19T00:57:00;41.83;;;20.00;;
67278;SDS011;54193;53.746;10.058;2023-03-19T00:59:45;40.08;;;20.25;;
67278;SDS011;54193;53.746;10.058;2023-03-19T01:02:31;42.40;;;20.37;;
67278;SDS011;54193;53.746;10.058;2023-03-19T01:05:17;40.72;;;20.17;;
67278;SDS011;54193;53.746;10.058;2023-03-19T01:08:03;40.90;;;20.38;;
67278;SDS011;54193;53.746;10.058;2023-03-19T01:10:48;41.53;;;20.67;;
67278;SDS011;54193;53.746;10.058;2023-03-19T01:13:34;45.08;;;22.08;;
67278;SDS011;54193;53.746;10.058;2023-03-19T01:16:20;46.90;;;21.90;;
67278;SDS011;54193;53.746;10.058;2023-03-19T01:19:06;44.10;;;21.70;;
67278;SDS011;54193;53.746;10.058;2023-03-19T01:21:51;49.85;;;23.83;;
67278;SDS011;54193;53.746;10.058;2023-03-19T01:24:37;47.88;;;23.05;;
67278;SDS011;54193;53.746;10.058;2023-03-19T01:27:23;50.45;;;23.30;;
67278;SDS011;54193;53.746;10.058;2023-03-19T01:30:08;44.57;;;21.90;;
67278;SDS011;54193;53.746;10.058;2023-03-19T01:32:55;43.13;;;21.92;;
67278;SDS011;54193;53.746;10.058;2023-03-19T01:35:40;46.17;;;22.73;;
67278;SDS011;54193;53.746;10.058;2023-03-19T01:38:27;44.40;;;22.13;;
67278;SDS011;54193;53.746;10.058;2023-03-19T01:41:13;44.10;;;20.70;;
67278;SDS011;54193;53.746;10.058;2023-03-19T01:43:59;44.42;;;21.48;;
67278;SDS011;54193;53.746;10.058;2023-03-19T01:46:45;42.30;;;21.20;;
67278;SDS011;54193;53.746;10.058;2023-03-19T01:49:30;41.13;;;20.30;;
67278;SDS011;54193;53.746;10.058;2023-03-19T01:52:17;40.83;;;20.23;;
67278;SDS011;54193;53.746;10.058;2023-03-19T01:55:03;41.78;;;20.20;;
67278;SDS011;54193;53.746;10.058;2023-03-19T01:57:50;38.90;;;19.40;;
67278;SDS011;54193;53.746;10.058;2023-03-19T02:00:36;44.42;;;21.27;;
67278;SDS011;54193;53.746;10.058;2023-03-19T02:03:23;45.90;;;21.88;;
67278;SDS011;54193;53.746;10.058;2023-03-19T02:06:09;47.33;;;21.33;;
67278;SDS011;54193;53.746;10.058;2023-03-19T02:08:57;42.97;;;20.85;;
67278;SDS011;54193;53.746;10.058;2023-03-19T02:11:43;44.78;;;20.77;;
67278;SDS011;54193;53.746;10.058;2023-03-19T02:14:29;41.22;;;19.80;;
67278;SDS011;54193;53.746;10.058;2023-03-19T02:17:15;40.53;;;20.13;;
67278;SDS011;54193;53.746;10.058;2023-03-19T02:23:16;42.80;;;19.83;;
67278;SDS011;54193;53.746;10.058;2023-03-19T02:26:11;40.97;;;20.20;;
67278;SDS011;54193;53.746;10.058;2023-03-19T02:29:00;40.03;;;19.63;;
67278;SDS011;54193;53.746;10.058;2023-03-19T02:31:45;38.90;;;19.20;;
67278;SDS011;54193;53.746;10.058;2023-03-19T02:34:33;40.33;;;19.20;;
67278;SDS011;54193;53.746;10.058;2023-03-19T02:37:21;40.08;;;19.75;;
67278;SDS011;54193;53.746;10.058;2023-03-19T02:40:16;44.10;;;19.77;;
67278;SDS011;54193;53.746;10.058;2023-03-19T02:43:06;39.53;;;18.98;;
67278;SDS011;54193;53.746;10.058;2023-03-19T02:45:52;38.45;;;18.65;;
67278;SDS011;54193;53.746;10.058;2023-03-19T02:48:38;35.97;;;18.45;;
67278;SDS011;54193;53.746;10.058;2023-03-19T02:51:25;37.53;;;18.70;;
67278;SDS011;54193;53.746;10.058;2023-03-19T02:54:11;34.43;;;17.63;;
67278;SDS011;54193;53.746;10.058;2023-03-19T02:56:57;38.58;;;17.85;;
67278;SDS011;54193;53.746;10.058;2023-03-19T02:59:42;37.53;;;16.30;;
67278;SDS011;54193;53.746;10.058;2023-03-19T03:02:28;36.63;;;17.13;;
67278;SDS011;54193;53.746;10.058;2023-03-19T03:05:14;36.13;;;17.65;;
67278;SDS011;54193;53.746;10.058;2023-03-19T03:07:59;37.55;;;18.40;;
67278;SDS011;54193;53.746;10.058;2023-03-19T03:10:45;38.53;;;17.83;;
67278;SDS011;54193;53.746;10.058;2023-03-19T03:13:31;36.47;;;17.88;;
67278;SDS011;54193;53.746;10.058;2023-03-19T03:16:17;36.28;;;17.88;;
67278;SDS011;54193;53.746;10.058;2023-03-19T03:19:03;40.22;;;17.80;;
67278;SDS011;54193;53.746;10.058;2023-03-19T03:21:49;34.00;;;16.67;;
67278;SDS011;54193;53.746;10.058;2023-03-19T03:24:34;39.40;;;18.67;;
67278;SDS011;54193;53.746;10.058;2023-03-19T03:27:20;35.80;;;17.08;;
67278;SDS011;54193;53.746;10.058;2023-03-19T03:30:07;39.17;;;18.13;;
67278;SDS011;54193;53.746;10.058;2023-03-19T03:32:54;36.00;;;16.92;;
67278;SDS011;54193;53.746;10.058;2023-03-19T03:35:40;35.33;;;16.50;;
67278;SDS011;54193;53.746;10.058;2023-03-19T03:38:26;32.85;;;16.63;;
67278;SDS011;54193;53.746;10.058;2023-03-19T03:41:12;36.90;;;16.42;;
67278;SDS011;54193;53.746;10.058;2023-03-19T03:43:57;38.58;;;17.25;;
67278;SDS011;54193;53.746;10.058;2023-03-19T03:46:43;32.05;;;15.55;;
67278;SDS011;54193;53.746;10.058;2023-03-19T03:49:29;34.67;;;16.20;;
67278;SDS011;54193;53.746;10.058;2023-03-19T03:52:14;34.58;;;16.00;;
67278;SDS011;54193;53.746;10.058;2023-03-19T03:55:00;36.38;;;16.92;;
67278;SDS011;54193;53.746;10.058;2023-03-19T03:57:46;37.77;;;17.13;;
67278;SDS011;54193;53.746;10.058;2023-03-19T04:00:32;36.80;;;17.83;;
67278;SDS011;54193;53.746;10.058;2023-03-19T04:03:18;43.88;;;19.30;;
67278;SDS011;54193;53.746;10.058;2023-03-19T04:06:04;42.83;;;19.17;;
67278;SDS011;54193;53.746;10.058;2023-03-19T04:08:50;48.55;;;19.55;;
67278;SDS011;54193;53.746;10.058;2023-03-19T04:11:36;42.25;;;18.70;;
67278;SDS011;54193;53.746;10.058;2023-03-19T04:14:24;42.67;;;19.25;;
67278;SDS011;54193;53.746;10.058;2023-03-19T04:17:11;41.10;;;18.37;;
67278;SDS011;54193;53.746;10.058;2023-03-19T04:19:56;41.03;;;17.77;;
67278;SDS011;54193;53.746;10.058;2023-03-19T04:22:42;35.70;;;16.13;;
67278;SDS011;54193;53.746;10.058;2023-03-19T04:25:28;37.50;;;17.53;;
67278;SDS011;54193;53.746;10.058;2023-03-19T04:28:14;36.78;;;17.92;;
67278;SDS011;54193;53.746;10.058;2023-03-19T04:31:03;40.15;;;18.15;;
67278;SDS011;54193;53.746;10.058;2023-03-19T04:33:51;39.72;;;18.25;;
67278;SDS011;54193;53.746;10.058;2023-03-19T04:36:36;41.00;;;18.15;;
67278;SDS011;54193;53.746;10.058;2023-03-19T04:39:23;41.03;;;17.92;;
67278;SDS011;54193;53.746;10.058;2023-03-19T04:42:09;41.13;;;18.92;;
67278;SDS011;54193;53.746;10.058;2023-03-19T04:44:55;41.20;;;18.37;;
67278;SDS011;54193;53.746;10.058;2023-03-19T04:47:41;38.90;;;18.08;;
67278;SDS011;54193;53.746;10.058;2023-03-19T04:50:27;35.63;;;17.20;;
67278;SDS011;54193;53.746;10.058;2023-03-19T04:53:13;37.87;;;18.37;;
67278;SDS011;54193;53.746;10.058;2023-03-19T04:55:59;40.30;;;18.80;;
67278;SDS011;54193;53.746;10.058;2023-03-19T04:58:44;35.35;;;17.30;;
67278;SDS011;54193;53.746;10.058;2023-03-19T05:01:30;39.00;;;17.98;;
67278;SDS011;54193;53.746;10.058;2023-03-19T05:04:17;37.88;;;17.67;;
67278;SDS011;54193;53.746;10.058;2023-03-19T05:07:03;36.00;;;17.08;;
67278;SDS011;54193;53.746;10.058;2023-03-19T05:09:48;33.50;;;16.98;;
67278;SDS011;54193;53.746;10.058;2023-03-19T05:12:34;35.10;;;16.53;;
67278;SDS011;54193;53.746;10.058;2023-03-19T05:15:20;37.38;;;17.50;;
67278;SDS011;54193;53.746;10.058;2023-03-19T05:18:05;35.78;;;16.73;;
67278;SDS011;54193;53.746;10.058;2023-03-19T05:20:52;34.13;;;16.77;;
67278;SDS011;54193;53.746;10.058;2023-03-19T05:23:39;35.22;;;16.33;;
67278;SDS011;54193;53.746;10.058;2023-03-19T05:26:25;33.08;;;16.35;;
67278;SDS011;54193;53.746;10.058;2023-03-19T05:29:10;37.20;;;16.50;;
67278;SDS011;54193;53.746;10.058;2023-03-19T05:31:58;34.22;;;16.58;;
67278;SDS011;54193;53.746;10.058;2023-03-19T05:34:47;35.42;;;16.75;;
67278;SDS011;54193;53.746;10.058;2023-03-19T05:37:34;31.40;;;14.65;;
67278;SDS011;54193;53.746;10.058;2023-03-19T05:40:20;32.03;;;14.97;;
67278;SDS011;54193;53.746;10.058;2023-03-19T05:43:08;36.28;;;17.40;;
67278;SDS011;54193;53.746;10.058;2023-03-19T05:45:54;35.97;;;17.65;;
67278;SDS011;54193;53.746;10.058;2023-03-19T05:48:40;36.87;;;16.77;;
67278;SDS011;54193;53.746;10.058;2023-03-19T05:51:26;32.40;;;16.02;;
67278;SDS011;54193;53.746;10.058;2023-03-19T05:54:12;32.20;;;15.35;;
67278;SDS011;54193;53.746;10.058;2023-03-19T05:56:58;31.45;;;15.20;;
67278;SDS011;54193;53.746;10.058;2023-03-19T05:59:43;30.38;;;14.95;;
67278;SDS011;54193;53.746;10.058;2023-03-19T06:02:29;29.10;;;14.23;;
67278;SDS011;54193;53.746;10.058;2023-03-19T06:05:15;31.40;;;15.90;;
67278;SDS011;54193;53.746;10.058;2023-03-19T06:08:01;33.60;;;17.10;;
67278;SDS011;54193;53.746;10.058;2023-03-19T06:10:46;33.95;;;16.73;;
67278;SDS011;54193;53.746;10.058;2023-03-19T06:13:32;35.30;;;16.38;;
67278;SDS011;54193;53.746;10.058;2023-03-19T06:16:18;36.23;;;16.73;;
67278;SDS011;54193;53.746;10.058;2023-03-19T06:19:03;37.05;;;17.95;;
67278;SDS011;54193;53.746;10.058;2023-03-19T06:21:49;42.92;;;19.67;;
67278;SDS011;54193;53.746;10.058;2023-03-19T06:24:34;45.78;;;20.00;;
67278;SDS011;54193;53.746;10.058;2023-03-19T06:27:21;39.03;;;18.38;;
67278;SDS011;54193;53.746;10.058;2023-03-19T06:30:07;39.92;;;18.92;;
67278;SDS011;54193;53.746;10.058;2023-03-19T06:32:54;36.30;;;17.27;;
67278;SDS011;54193;53.746;10.058;2023-03-19T06:35:40;38.60;;;18.27;;
67278;SDS011;54193;53.746;10.058;2023-03-19T06:38:27;35.78;;;16.92;;
67278;SDS011;54193;53.746;10.058;2023-03-19T06:41:12;34.53;;;16.00;;
67278;SDS011;54193;53.746;10.058;2023-03-19T06:43:58;35.17;;;17.27;;
67278;SDS011;54193;53.746;10.058;2023-03-19T06:46:43;32.83;;;17.35;;
67278;SDS011;54193;53.746;10.058;2023-03-19T06:49:29;31.43;;;16.13;;
67278;SDS011;54193;53.746;10.058;2023-03-19T06:52:15;32.33;;;16.15;;
67278;SDS011;54193;53.746;10.058;2023-03-19T06:55:01;28.88;;;15.07;;
67278;SDS011;54193;53.746;10.058;2023-03-19T06:57:47;30.10;;;15.67;;
67278;SDS011;54193;53.746;10.058;2023-03-19T07:00:34;30.90;;;15.98;;
67278;SDS011;54193;53.746;10.058;2023-03-19T07:03:20;29.73;;;13.80;;
67278;SDS011;54193;53.746;10.058;2023-03-19T07:06:05;34.47;;;14.00;;
67278;SDS011;54193;53.746;10.058;2023-03-19T07:08:51;25.63;;;12.35;;
67278;SDS011;54193;53.746;10.058;2023-03-19T07:11:37;21.50;;;11.23;;
67278;SDS011;54193;53.746;10.058;2023-03-19T07:14:23;22.63;;;11.43;;
67278;SDS011;54193;53.746;10.058;2023-03-19T07:17:08;21.93;;;11.17;;
67278;SDS011;54193;53.746;10.058;2023-03-19T07:19:54;21.95;;;10.93;;
67278;SDS011;54193;53.746;10.058;2023-03-19T07:22:40;20.95;;;11.20;;
67278;SDS011;54193;53.746;10.058;2023-03-19T07:25:26;20.87;;;10.83;;
67278;SDS011;54193;53.746;10.058;2023-03-19T07:28:12;19.42;;;9.85;;
67278;SDS011;54193;53.746;10.058;2023-03-19T07:30:58;16.90;;;9.63;;
67278;SDS011;54193;53.746;10.058;2023-03-19T07:33:43;19.48;;;10.48;;
67278;SDS011;54193;53.746;10.058;2023-03-19T07:36:29;19.00;;;10.55;;
67278;SDS011;54193;53.746;10.058;2023-03-19T07:39:15;18.50;;;10.30;;
67278;SDS011;54193;53.746;10.058;2023-03-19T07:42:01;18.30;;;10.40;;
67278;SDS011;54193;53.746;10.058;2023-03-19T07:44:46;16.57;;;9.60;;
67278;SDS011;54193;53.746;10.058;2023-03-19T07:47:32;18.30;;;9.93;;
67278;SDS011;54193;53.746;10.058;2023-03-19T07:50:18;17.15;;;8.93;;
67278;SDS011;54193;53.746;10.058;2023-03-19T07:53:04;15.37;;;8.97;;
67278;SDS011;54193;53.746;10.058;2023-03-19T07:55:49;16.92;;;8.73;;
67278;SDS011;54193;53.746;10.058;2023-03-19T07:58:35;16.20;;;8.70;;
67278;SDS011;54193;53.746;10.058;2023-03-19T08:01:21;15.38;;;8.55;;
67278;SDS011;54193;53.746;10.058;2023-03-19T08:04:06;13.73;;;7.55;;
67278;SDS011;54193;53.746;10.058;2023-03-19T08:06:52;15.38;;;8.35;;
67278;SDS011;54193;53.746;10.058;2023-03-19T08:09:38;13.30;;;8.20;;
67278;SDS011;54193;53.746;10.058;2023-03-19T08:12:24;13.97;;;8.23;;
67278;SDS011;54193;53.746;10.058;2023-03-19T08:15:10;15.57;;;9.05;;
67278;SDS011;54193;53.746;10.058;2023-03-19T08:17:57;15.75;;;8.57;;
67278;SDS011;54193;53.746;10.058;2023-03-19T08:20:44;14.37;;;8.13;;
67278;SDS011;54193;53.746;10.058;2023-03-19T08:23:31;15.05;;;7.90;;
67278;SDS011;54193;53.746;10.058;2023-03-19T08:26:16;15.35;;;8.55;;
67278;SDS011;54193;53.746;10.058;2023-03-19T08:29:02;12.80;;;7.80;;
67278;SDS011;54193;53.746;10.058;2023-03-19T08:31:48;13.10;;;7.57;;
67278;SDS011;54193;53.746;10.058;2023-03-19T08:34:34;13.50;;;7.97;;
67278;SDS011;54193;53.746;10.058;2023-03-19T08:37:20;13.93;;;8.48;;
67278;SDS011;54193;53.746;10.058;2023-03-19T08:40:11;12.87;;;7.40;;
67278;SDS011;54193;53.746;10.058;2023-03-19T08:42:57;14.38;;;8.38;;
67278;SDS011;54193;53.746;10.058;2023-03-19T08:45:43;13.23;;;7.70;;
67278;SDS011;54193;53.746;10.058;2023-03-19T08:48:29;14.33;;;8.10;;
67278;SDS011;54193;53.746;10.058;2023-03-19T08:51:15;12.40;;;7.68;;
67278;SDS011;54193;53.746;10.058;2023-03-19T08:54:01;12.35;;;7.50;;
67278;SDS011;54193;53.746;10.058;2023-03-19T08:56:46;12.65;;;7.35;;
67278;SDS011;54193;53.746;10.058;2023-03-19T08:59:32;12.30;;;7.47;;
67278;SDS011;54193;53.746;10.058;2023-03-19T09:02:20;12.23;;;7.35;;
67278;SDS011;54193;53.746;10.058;2023-03-19T09:05:06;13.75;;;7.45;;
67278;SDS011;54193;53.746;10.058;2023-03-19T09:07:52;13.17;;;7.13;;
67278;SDS011;54193;53.746;10.058;2023-03-19T09:10:38;12.25;;;6.60;;
67278;SDS011;54193;53.746;10.058;2023-03-19T09:13:24;12.23;;;7.23;;
67278;SDS011;54193;53.746;10.058;2023-03-19T09:16:11;10.70;;;6.53;;
67278;SDS011;54193;53.746;10.058;2023-03-19T09:18:59;10.47;;;6.27;;
67278;SDS011;54193;53.746;10.058;2023-03-19T09:21:45;9.05;;;5.70;;
67278;SDS011;54193;53.746;10.058;2023-03-19T09:24:31;9.20;;;5.88;;
67278;SDS011;54193;53.746;10.058;2023-03-19T09:27:17;9.15;;;5.55;;
67278;SDS011;54193;53.746;10.058;2023-03-19T09:30:03;7.97;;;4.80;;
67278;SDS011;54193;53.746;10.058;2023-03-19T09:32:49;8.07;;;5.07;;
67278;SDS011;54193;53.746;10.058;2023-03-19T09:35:35;6.70;;;4.57;;
67278;SDS011;54193;53.746;10.058;2023-03-19T09:38:23;8.97;;;5.13;;
67278;SDS011;54193;53.746;10.058;2023-03-19T09:41:15;7.55;;;4.30;;
67278;SDS011;54193;53.746;10.058;2023-03-19T09:50:14;9.65;;;3.80;;
67278;SDS011;54193;53.746;10.058;2023-03-19T09:53:07;5.82;;;3.60;;
67278;SDS011;54193;53.746;10.058;2023-03-19T09:56:08;5.93;;;3.60;;
67278;SDS011;54193;53.746;10.058;2023-03-19T09:58:59;7.10;;;3.90;;
67278;SDS011;54193;53.746;10.058;2023-03-19T10:01:59;7.07;;;3.58;;
67278;SDS011;54193;53.746;10.058;2023-03-19T10:08:12;7.53;;;4.10;;
67278;SDS011;54193;53.746;10.058;2023-03-19T10:17:41;6.93;;;3.80;;
67278;SDS011;54193;53.746;10.058;2023-03-19T10:20:45;6.47;;;3.70;;
67278;SDS011;54193;53.746;10.058;2023-03-19T10:24:09;6.22;;;3.22;;
67278;SDS011;54193;53.746;10.058;2023-03-19T10:26:59;6.68;;;3.70;;
67278;SDS011;54193;53.746;10.058;2023-03-19T10:29:49;6.53;;;3.60;;
67278;SDS011;54193;53.746;10.058;2023-03-19T10:32:43;6.00;;;3.67;;
67278;SDS011;54193;53.746;10.058;2023-03-19T10:35:38;6.93;;;3.67;;
67278;SDS011;54193;53.746;10.058;2023-03-19T10:38:27;6.47;;;3.63;;
67278;SDS011;54193;53.746;10.058;2023-03-19T10:44:37;6.85;;;4.20;;
67278;SDS011;54193;53.746;10.058;2023-03-19T10:47:34;6.95;;;4.03;;
67278;SDS011;54193;53.746;10.058;2023-03-19T10:50:27;7.10;;;4.30;;
67278;SDS011;54193;53.746;10.058;2023-03-19T10:56:03;7.63;;;3.90;;
67278;SDS011;54193;53.746;10.058;2023-03-19T11:01:46;6.00;;;3.70;;
67278;SDS011;54193;53.746;10.058;2023-03-19T11:04:32;7.65;;;3.80;;
67278;SDS011;54193;53.746;10.058;2023-03-19T11:07:18;6.53;;;3.80;;
67278;SDS011;54193;53.746;10.058;2023-03-19T11:10:13;6.67;;;3.60;;
67278;SDS011;54193;53.746;10.058;2023-03-19T11:13:04;7.03;;;3.80;;
67278;SDS011;54193;53.746;10.058;2023-03-19T11:16:00;7.22;;;3.60;;
67278;SDS011;54193;53.746;10.058;2023-03-19T11:18:46;5.77;;;3.17;;
67278;SDS011;54193;53.746;10.058;2023-03-19T11:21:33;5.38;;;3.33;;
67278;SDS011;54193;53.746;10.058;2023-03-19T11:24:21;5.63;;;3.20;;
67278;SDS011;54193;53.746;10.058;2023-03-19T11:27:07;5.18;;;3.13;;
67278;SDS011;54193;53.746;10.058;2023-03-19T11:29:54;4.68;;;2.80;;
67278;SDS011;54193;53.746;10.058;2023-03-19T11:36:04;5.97;;;3.00;;
67278;SDS011;54193;53.746;10.058;2023-03-19T11:48:45;7.57;;;4.30;;
67278;SDS011;54193;53.746;10.058;2023-03-19T11:58:28;6.70;;;4.07;;
67278;SDS011;54193;53.746;10.058;2023-03-19T12:08:08;8.23;;;4.45;;
67278;SDS011;54193;53.746;10.058;2023-03-19T12:11:08;9.07;;;4.60;;
67278;SDS011;54193;53.746;10.058;2023-03-19T12:14:11;8.50;;;4.63;;
67278;SDS011;54193;53.746;10.058;2023-03-19T12:20:24;8.10;;;4.95;;
67278;SDS011;54193;53.746;10.058;2023-03-19T12:27:17;10.25;;;5.32;;
67278;SDS011;54193;53.746;10.058;2023-03-19T12:35:26;9.13;;;5.55;;
67278;SDS011;54193;53.746;10.058;2023-03-19T12:38:33;9.73;;;5.75;;
67278;SDS011;54193;53.746;10.058;2023-03-19T12:41:24;9.97;;;5.60;;
67278;SDS011;54193;53.746;10.058;2023-03-19T12:44:17;8.15;;;4.53;;
67278;SDS011;54193;53.746;10.058;2023-03-19T12:47:08;9.77;;;4.80;;
67278;SDS011;54193;53.746;10.058;2023-03-19T12:50:00;8.43;;;4.55;;
67278;SDS011;54193;53.746;10.058;2023-03-19T12:52:49;8.45;;;4.78;;
67278;SDS011;54193;53.746;10.058;2023-03-19T12:55:44;7.53;;;4.45;;
67278;SDS011;54193;53.746;10.058;2023-03-19T12:58:50;7.82;;;4.50;;
67278;SDS011;54193;53.746;10.058;2023-03-19T13:01:49;8.00;;;4.03;;
67278;SDS011;54193;53.746;10.058;2023-03-19T13:04:52;7.10;;;4.35;;
67278;SDS011;54193;53.746;10.058;2023-03-19T13:07:49;7.03;;;4.13;;
67278;SDS011;54193;53.746;10.058;2023-03-19T13:10:42;7.07;;;4.10;;
67278;SDS011;54193;53.746;10.058;2023-03-19T13:16:57;6.40;;;3.70;;
67278;SDS011;54193;53.746;10.058;2023-03-19T13:19:48;6.80;;;4.22;;
67278;SDS011;54193;53.746;10.058;2023-03-19T13:22:38;6.90;;;4.00;;
67278;SDS011;54193;53.746;10.058;2023-03-19T13:25:30;7.20;;;4.30;;
67278;SDS011;54193;53.746;10.058;2023-03-19T13:28:32;7.90;;;4.45;;
67278;SDS011;54193;53.746;10.058;2023-03-19T13:31:20;8.10;;;4.60;;
67278;SDS011;54193;53.746;10.058;2023-03-19T13:40:00;9.52;;;4.95;;
67278;SDS011;54193;53.746;10.058;2023-03-19T13:42:55;7.85;;;4.47;;
67278;SDS011;54193;53.746;10.058;2023-03-19T13:45:41;8.88;;;5.00;;
67278;SDS011;54193;53.746;10.058;2023-03-19T13:54:06;9.00;;;5.18;;
67278;SDS011;54193;53.746;10.058;2023-03-19T13:57:05;8.60;;;4.70;;
67278;SDS011;54193;53.746;10.058;2023-03-19T14:00:52;9.93;;;6.33;;
67278;SDS011;54193;53.746;10.058;2023-03-19T14:03:27;8.98;;;4.80;;
67278;SDS011;54193;53.746;10.058;2023-03-19T14:09:27;7.93;;;4.53;;
67278;SDS011;54193;53.746;10.058;2023-03-19T14:12:31;9.38;;;5.00;;
67278;SDS011;54193;53.746;10.058;2023-03-19T14:15:21;9.02;;;5.47;;
67278;SDS011;54193;53.746;10.058;2023-03-19T14:18:09;10.05;;;6.50;;
67278;SDS011;54193;53.746;10.058;2023-03-19T14:21:04;10.70;;;6.27;;
67278;SDS011;54193;53.746;10.058;2023-03-19T14:23:54;10.88;;;6.60;;
67278;SDS011;54193;53.746;10.058;2023-03-19T14:26:42;9.70;;;6.22;;
67278;SDS011;54193;53.746;10.058;2023-03-19T14:29:28;10.80;;;5.93;;
67278;SDS011;54193;53.746;10.058;2023-03-19T14:32:18;10.48;;;6.00;;
67278;SDS011;54193;53.746;10.058;2023-03-19T14:35:11;12.00;;;6.10;;
67278;SDS011;54193;53.746;10.058;2023-03-19T14:38:01;9.85;;;5.72;;
67278;SDS011;54193;53.746;10.058;2023-03-19T14:40:57;9.48;;;6.00;;
67278;SDS011;54193;53.746;10.058;2023-03-19T14:50:23;9.93;;;5.90;;
67278;SDS011;54193;53.746;10.058;2023-03-19T14:53:58;13.85;;;7.90;;
67278;SDS011;54193;53.746;10.058;2023-03-19T14:56:37;12.15;;;6.53;;
67278;SDS011;54193;53.746;10.058;2023-03-19T14:59:24;10.77;;;6.53;;
67278;SDS011;54193;53.746;10.058;2023-03-19T15:02:17;11.82;;;6.57;;
67278;SDS011;54193;53.746;10.058;2023-03-19T15:08:09;10.93;;;6.93;;
67278;SDS011;54193;53.746;10.058;2023-03-19T15:20:03;13.83;;;8.43;;
67278;SDS011;54193;53.746;10.058;2023-03-19T15:23:04;15.30;;;8.60;;
67278;SDS011;54193;53.746;10.058;2023-03-19T15:25:57;17.20;;;8.25;;
67278;SDS011;54193;53.746;10.058;2023-03-19T15:28:51;14.90;;;8.53;;
67278;SDS011;54193;53.746;10.058;2023-03-19T15:34:32;14.82;;;9.00;;
67278;SDS011;54193;53.746;10.058;2023-03-19T15:37:18;15.93;;;8.75;;
67278;SDS011;54193;53.746;10.058;2023-03-19T15:40:05;15.35;;;9.43;;
67278;SDS011;54193;53.746;10.058;2023-03-19T15:42:55;15.20;;;9.25;;
67278;SDS011;54193;53.746;10.058;2023-03-19T15:45:45;16.67;;;9.43;;
67278;SDS011;54193;53.746;10.058;2023-03-19T15:48:36;16.97;;;9.97;;
67278;SDS011;54193;53.746;10.058;2023-03-19T15:51:27;19.52;;;11.40;;
67278;SDS011;54193;53.746;10.058;2023-03-19T15:54:13;17.73;;;10.43;;
67278;SDS011;54193;53.746;10.058;2023-03-19T15:57:00;21.87;;;12.13;;
67278;SDS011;54193;53.746;10.058;2023-03-19T15:59:46;22.55;;;12.10;;
67278;SDS011;54193;53.746;10.058;2023-03-19T16:02:32;21.08;;;11.93;;
67278;SDS011;54193;53.746;10.058;2023-03-19T16:08:09;24.48;;;13.40;;
67278;SDS011;54193;53.746;10.058;2023-03-19T16:17:01;22.97;;;12.67;;
67278;SDS011;54193;53.746;10.058;2023-03-19T16:19:54;22.58;;;11.63;;
67278;SDS011;54193;53.746;10.058;2023-03-19T16:22:48;20.33;;;11.30;;
67278;SDS011;54193;53.746;10.058;2023-03-19T16:25:38;21.10;;;11.43;;
67278;SDS011;54193;53.746;10.058;2023-03-19T16:28:24;24.23;;;12.85;;
67278;SDS011;54193;53.746;10.058;2023-03-19T16:31:20;24.55;;;13.43;;
67278;SDS011;54193;53.746;10.058;2023-03-19T16:37:24;29.48;;;14.80;;
67278;SDS011;54193;53.746;10.058;2023-03-19T16:43:04;26.88;;;14.40;;
67278;SDS011;54193;53.746;10.058;2023-03-19T16:46:02;27.50;;;13.87;;
67278;SDS011;54193;53.746;10.058;2023-03-19T16:48:52;26.75;;;13.07;;
67278;SDS011;54193;53.746;10.058;2023-03-19T16:51:38;27.02;;;13.93;;
67278;SDS011;54193;53.746;10.058;2023-03-19T16:54:24;24.07;;;13.43;;
67278;SDS011;54193;53.746;10.058;2023-03-19T16:57:17;26.15;;;13.68;;
67278;SDS011;54193;53.746;10.058;2023-03-19T17:00:05;26.67;;;14.43;;
67278;SDS011;54193;53.746;10.058;2023-03-19T17:02:52;25.35;;;13.35;;
67278;SDS011;54193;53.746;10.058;2023-03-19T17:05:40;28.15;;;13.43;;
67278;SDS011;54193;53.746;10.058;2023-03-19T17:08:26;26.95;;;13.65;;
67278;SDS011;54193;53.746;10.058;2023-03-19T17:11:17;27.60;;;13.55;;
67278;SDS011;54193;53.746;10.058;2023-03-19T17:14:14;26.53;;;12.77;;
67278;SDS011;54193;53.746;10.058;2023-03-19T17:17:02;25.98;;;13.40;;
67278;SDS011;54193;53.746;10.058;2023-03-19T17:19:48;23.40;;;12.63;;
67278;SDS011;54193;53.746;10.058;2023-03-19T17:22:35;27.63;;;13.53;;
67278;SDS011;54193;53.746;10.058;2023-03-19T17:25:21;25.27;;;13.25;;
67278;SDS011;54193;53.746;10.058;2023-03-19T17:28:07;27.50;;;14.25;;
67278;SDS011;54193;53.746;10.058;2023-03-19T17:30:53;26.75;;;13.70;;
67278;SDS011;54193;53.746;10.058;2023-03-19T17:33:39;26.00;;;13.02;;
67278;SDS011;54193;53.746;10.058;2023-03-19T17:36:25;26.85;;;13.18;;
67278;SDS011;54193;53.746;10.058;2023-03-19T17:39:11;40.00;;;17.55;;
67278;SDS011;54193;53.746;10.058;2023-03-19T17:41:57;54.40;;;24.67;;
67278;SDS011;54193;53.746;10.058;2023-03-19T17:44:43;53.97;;;25.25;;
67278;SDS011;54193;53.746;10.058;2023-03-19T17:47:29;49.95;;;23.05;;
67278;SDS011;54193;53.746;10.058;2023-03-19T17:50:16;46.00;;;22.60;;
67278;SDS011;54193;53.746;10.058;2023-03-19T17:53:04;36.47;;;17.90;;
67278;SDS011;54193;53.746;10.058;2023-03-19T17:55:50;31.35;;;15.45;;
67278;SDS011;54193;53.746;10.058;2023-03-19T17:58:35;30.45;;;14.40;;
67278;SDS011;54193;53.746;10.058;2023-03-19T18:01:22;27.77;;;13.60;;
67278;SDS011;54193;53.746;10.058;2023-03-19T18:04:13;33.42;;;15.05;;
67278;SDS011;54193;53.746;10.058;2023-03-19T18:07:01;29.92;;;13.77;;
67278;SDS011;54193;53.746;10.058;2023-03-19T18:09:47;31.07;;;14.30;;
67278;SDS011;54193;53.746;10.058;2023-03-19T18:12:33;31.27;;;14.55;;
67278;SDS011;54193;53.746;10.058;2023-03-19T18:15:19;32.97;;;14.93;;
67278;SDS011;54193;53.746;10.058;2023-03-19T18:18:08;28.83;;;14.13;;
67278;SDS011;54193;53.746;10.058;2023-03-19T18:21:00;34.65;;;14.48;;